sensor_id;sensor_type;location;lat;lon;timestamp;P1;durP1;ratioP1;P2;durP2;ratioP2
74995;SDS011;63545;51.690;5.202;2023-01-28T00:01:37;10.90;;;7.20;;
74995;SDS011;63545;51.690;5.202;2023-01-28T00:04:02;10.33;;;7.03;;
74995;SDS011;63545;51.690;5.202;2023-01-28T00:06:28;10.13;;;7.07;;
74995;SDS011;63545;51.690;5.202;2023-01-28T00:08:53;10.00;;;6.78;;
74995;SDS011;63545;51.690;5.202;2023-01-28T00:11:19;10.05;;;7.10;;
74995;SDS011;63545;51.690;5.202;2023-01-28T00:13:49;10.40;;;7.10;;
74995;SDS011;63545;51.690;5.202;2023-01-28T00:16:16;12.95;;;7.35;;
74995;SDS011;63545;51.690;5.202;2023-01-28T00:18:42;9.63;;;7.07;;
74995;SDS011;63545;51.690;5.202;2023-01-28T00:21:09;11.77;;;7.10;;
74995;SDS011;63545;51.690;5.202;2023-01-28T00:23:38;11.13;;;7.53;;
74995;SDS011;63545;51.690;5.202;2023-01-28T00:26:05;10.10;;;7.07;;
74995;SDS011;63545;51.690;5.202;2023-01-28T00:28:35;10.93;;;7.55;;
74995;SDS011;63545;51.690;5.202;2023-01-28T00:31:11;10.80;;;7.47;;
74995;SDS011;63545;51.690;5.202;2023-01-28T00:33:41;10.98;;;7.25;;
74995;SDS011;63545;51.690;5.202;2023-01-28T00:36:06;10.68;;;7.55;;
74995;SDS011;63545;51.690;5.202;2023-01-28T00:38:34;11.00;;;7.20;;
74995;SDS011;63545;51.690;5.202;2023-01-28T00:41:07;11.80;;;7.47;;
74995;SDS011;63545;51.690;5.202;2023-01-28T00:43:33;10.57;;;6.88;;
74995;SDS011;63545;51.690;5.202;2023-01-28T00:45:59;10.90;;;7.03;;
74995;SDS011;63545;51.690;5.202;2023-01-28T00:48:24;11.73;;;7.50;;
74995;SDS011;63545;51.690;5.202;2023-01-28T00:50:50;11.35;;;7.25;;
74995;SDS011;63545;51.690;5.202;2023-01-28T00:53:15;10.80;;;7.63;;
74995;SDS011;63545;51.690;5.202;2023-01-28T00:55:41;11.50;;;7.47;;
74995;SDS011;63545;51.690;5.202;2023-01-28T00:58:06;11.97;;;7.90;;
74995;SDS011;63545;51.690;5.202;2023-01-28T01:00:32;10.87;;;6.97;;
74995;SDS011;63545;51.690;5.202;2023-01-28T01:02:57;9.27;;;6.80;;
74995;SDS011;63545;51.690;5.202;2023-01-28T01:05:23;10.32;;;6.97;;
74995;SDS011;63545;51.690;5.202;2023-01-28T01:07:48;9.27;;;6.33;;
74995;SDS011;63545;51.690;5.202;2023-01-28T01:10:15;10.80;;;7.50;;
74995;SDS011;63545;51.690;5.202;2023-01-28T01:12:44;10.75;;;6.72;;
74995;SDS011;63545;51.690;5.202;2023-01-28T01:15:11;10.63;;;7.22;;
74995;SDS011;63545;51.690;5.202;2023-01-28T01:17:37;10.57;;;7.20;;
74995;SDS011;63545;51.690;5.202;2023-01-28T01:20:04;11.32;;;7.00;;
74995;SDS011;63545;51.690;5.202;2023-01-28T01:22:34;11.23;;;7.15;;
74995;SDS011;63545;51.690;5.202;2023-01-28T01:25:00;12.57;;;7.90;;
74995;SDS011;63545;51.690;5.202;2023-01-28T01:27:25;11.50;;;7.73;;
74995;SDS011;63545;51.690;5.202;2023-01-28T01:29:51;15.83;;;9.03;;
74995;SDS011;63545;51.690;5.202;2023-01-28T01:32:16;14.02;;;8.85;;
74995;SDS011;63545;51.690;5.202;2023-01-28T01:34:42;14.60;;;9.20;;
74995;SDS011;63545;51.690;5.202;2023-01-28T01:37:08;13.30;;;9.02;;
74995;SDS011;63545;51.690;5.202;2023-01-28T01:39:34;13.27;;;8.93;;
74995;SDS011;63545;51.690;5.202;2023-01-28T01:42:00;14.40;;;9.10;;
74995;SDS011;63545;51.690;5.202;2023-01-28T01:50:29;18.73;;;9.05;;
74995;SDS011;63545;51.690;5.202;2023-01-28T01:52:59;14.93;;;9.20;;
74995;SDS011;63545;51.690;5.202;2023-01-28T01:55:28;14.90;;;10.10;;
74995;SDS011;63545;51.690;5.202;2023-01-28T01:57:56;13.90;;;8.50;;
74995;SDS011;63545;51.690;5.202;2023-01-28T02:00:22;14.55;;;9.05;;
74995;SDS011;63545;51.690;5.202;2023-01-28T02:02:48;13.50;;;7.83;;
74995;SDS011;63545;51.690;5.202;2023-01-28T02:05:16;12.48;;;7.50;;
74995;SDS011;63545;51.690;5.202;2023-01-28T02:07:44;13.35;;;8.15;;
74995;SDS011;63545;51.690;5.202;2023-01-28T02:10:10;13.52;;;8.32;;
74995;SDS011;63545;51.690;5.202;2023-01-28T02:12:38;11.77;;;8.33;;
74995;SDS011;63545;51.690;5.202;2023-01-28T02:15:06;12.80;;;8.10;;
74995;SDS011;63545;51.690;5.202;2023-01-28T02:17:34;11.35;;;7.75;;
74995;SDS011;63545;51.690;5.202;2023-01-28T02:20:07;11.02;;;7.28;;
74995;SDS011;63545;51.690;5.202;2023-01-28T02:31:00;12.38;;;7.85;;
74995;SDS011;63545;51.690;5.202;2023-01-28T02:33:29;12.48;;;7.57;;
74995;SDS011;63545;51.690;5.202;2023-01-28T02:36:02;12.57;;;8.07;;
74995;SDS011;63545;51.690;5.202;2023-01-28T02:38:42;14.13;;;8.73;;
74995;SDS011;63545;51.690;5.202;2023-01-28T02:41:13;14.73;;;8.57;;
74995;SDS011;63545;51.690;5.202;2023-01-28T02:43:43;15.77;;;9.50;;
74995;SDS011;63545;51.690;5.202;2023-01-28T02:49:02;15.73;;;9.80;;
74995;SDS011;63545;51.690;5.202;2023-01-28T02:54:23;15.55;;;8.13;;
74995;SDS011;63545;51.690;5.202;2023-01-28T02:59:56;13.98;;;8.73;;
74995;SDS011;63545;51.690;5.202;2023-01-28T03:02:41;12.98;;;7.85;;
74995;SDS011;63545;51.690;5.202;2023-01-28T03:05:22;14.47;;;8.20;;
74995;SDS011;63545;51.690;5.202;2023-01-28T03:07:54;14.20;;;8.02;;
74995;SDS011;63545;51.690;5.202;2023-01-28T03:10:22;11.65;;;7.57;;
74995;SDS011;63545;51.690;5.202;2023-01-28T03:12:50;12.23;;;7.47;;
74995;SDS011;63545;51.690;5.202;2023-01-28T03:15:38;12.20;;;7.43;;
74995;SDS011;63545;51.690;5.202;2023-01-28T03:18:25;12.70;;;7.70;;
74995;SDS011;63545;51.690;5.202;2023-01-28T03:21:14;12.30;;;7.80;;
74995;SDS011;63545;51.690;5.202;2023-01-28T03:24:07;12.40;;;7.63;;
74995;SDS011;63545;51.690;5.202;2023-01-28T03:29:56;13.80;;;7.80;;
74995;SDS011;63545;51.690;5.202;2023-01-28T03:32:41;15.48;;;8.10;;
74995;SDS011;63545;51.690;5.202;2023-01-28T03:35:27;15.00;;;8.20;;
74995;SDS011;63545;51.690;5.202;2023-01-28T03:38:13;14.82;;;7.93;;
74995;SDS011;63545;51.690;5.202;2023-01-28T03:41:00;13.23;;;7.45;;
74995;SDS011;63545;51.690;5.202;2023-01-28T03:43:27;14.50;;;7.90;;
74995;SDS011;63545;51.690;5.202;2023-01-28T03:45:53;12.23;;;7.32;;
74995;SDS011;63545;51.690;5.202;2023-01-28T03:48:19;13.80;;;7.88;;
74995;SDS011;63545;51.690;5.202;2023-01-28T03:50:47;14.25;;;7.95;;
74995;SDS011;63545;51.690;5.202;2023-01-28T03:53:13;14.10;;;7.88;;
74995;SDS011;63545;51.690;5.202;2023-01-28T03:55:40;15.43;;;8.35;;
74995;SDS011;63545;51.690;5.202;2023-01-28T03:58:06;15.45;;;8.60;;
74995;SDS011;63545;51.690;5.202;2023-01-28T04:00:32;14.05;;;7.85;;
74995;SDS011;63545;51.690;5.202;2023-01-28T04:02:58;13.77;;;7.90;;
74995;SDS011;63545;51.690;5.202;2023-01-28T04:05:26;14.35;;;7.60;;
74995;SDS011;63545;51.690;5.202;2023-01-28T04:07:54;13.77;;;8.35;;
74995;SDS011;63545;51.690;5.202;2023-01-28T04:10:19;13.80;;;7.70;;
74995;SDS011;63545;51.690;5.202;2023-01-28T04:12:45;15.68;;;8.65;;
74995;SDS011;63545;51.690;5.202;2023-01-28T04:15:13;14.77;;;8.57;;
74995;SDS011;63545;51.690;5.202;2023-01-28T04:17:45;17.37;;;9.03;;
74995;SDS011;63545;51.690;5.202;2023-01-28T04:20:11;15.00;;;8.65;;
74995;SDS011;63545;51.690;5.202;2023-01-28T04:22:36;17.05;;;8.88;;
74995;SDS011;63545;51.690;5.202;2023-01-28T04:25:02;17.97;;;9.00;;
74995;SDS011;63545;51.690;5.202;2023-01-28T04:27:28;15.33;;;8.77;;
74995;SDS011;63545;51.690;5.202;2023-01-28T04:29:53;14.85;;;7.93;;
74995;SDS011;63545;51.690;5.202;2023-01-28T04:32:18;16.13;;;8.57;;
74995;SDS011;63545;51.690;5.202;2023-01-28T04:34:43;14.37;;;8.40;;
74995;SDS011;63545;51.690;5.202;2023-01-28T04:37:09;19.47;;;9.47;;
74995;SDS011;63545;51.690;5.202;2023-01-28T04:39:34;14.67;;;7.83;;
74995;SDS011;63545;51.690;5.202;2023-01-28T04:41:59;13.10;;;7.90;;
74995;SDS011;63545;51.690;5.202;2023-01-28T04:44:25;15.43;;;8.47;;
74995;SDS011;63545;51.690;5.202;2023-01-28T04:46:50;14.63;;;8.00;;
74995;SDS011;63545;51.690;5.202;2023-01-28T04:49:15;13.80;;;7.90;;
74995;SDS011;63545;51.690;5.202;2023-01-28T04:51:41;13.20;;;7.77;;
74995;SDS011;63545;51.690;5.202;2023-01-28T04:54:06;13.57;;;8.02;;
74995;SDS011;63545;51.690;5.202;2023-01-28T04:56:32;15.10;;;8.17;;
74995;SDS011;63545;51.690;5.202;2023-01-28T04:58:57;12.20;;;7.40;;
74995;SDS011;63545;51.690;5.202;2023-01-28T05:01:22;13.27;;;7.60;;
74995;SDS011;63545;51.690;5.202;2023-01-28T05:03:49;13.13;;;7.72;;
74995;SDS011;63545;51.690;5.202;2023-01-28T05:06:14;11.23;;;7.10;;
74995;SDS011;63545;51.690;5.202;2023-01-28T05:08:40;11.90;;;7.00;;
74995;SDS011;63545;51.690;5.202;2023-01-28T05:11:05;11.47;;;7.27;;
74995;SDS011;63545;51.690;5.202;2023-01-28T05:13:30;10.87;;;6.87;;
74995;SDS011;63545;51.690;5.202;2023-01-28T05:15:56;12.87;;;7.33;;
74995;SDS011;63545;51.690;5.202;2023-01-28T05:18:21;10.93;;;6.73;;
74995;SDS011;63545;51.690;5.202;2023-01-28T05:20:46;11.17;;;6.97;;
74995;SDS011;63545;51.690;5.202;2023-01-28T05:23:12;14.40;;;7.13;;
74995;SDS011;63545;51.690;5.202;2023-01-28T05:25:37;14.07;;;7.63;;
74995;SDS011;63545;51.690;5.202;2023-01-28T05:28:02;13.20;;;7.70;;
74995;SDS011;63545;51.690;5.202;2023-01-28T05:30:28;11.93;;;7.27;;
74995;SDS011;63545;51.690;5.202;2023-01-28T05:32:54;14.33;;;8.23;;
74995;SDS011;63545;51.690;5.202;2023-01-28T05:35:20;13.00;;;7.50;;
74995;SDS011;63545;51.690;5.202;2023-01-28T05:37:46;12.10;;;7.07;;
74995;SDS011;63545;51.690;5.202;2023-01-28T05:40:11;12.77;;;7.83;;
74995;SDS011;63545;51.690;5.202;2023-01-28T05:42:37;12.70;;;7.63;;
74995;SDS011;63545;51.690;5.202;2023-01-28T05:45:02;12.27;;;7.10;;
74995;SDS011;63545;51.690;5.202;2023-01-28T05:47:28;12.93;;;7.90;;
74995;SDS011;63545;51.690;5.202;2023-01-28T05:49:53;13.77;;;7.67;;
74995;SDS011;63545;51.690;5.202;2023-01-28T05:52:18;15.00;;;8.00;;
74995;SDS011;63545;51.690;5.202;2023-01-28T05:54:43;11.98;;;7.03;;
74995;SDS011;63545;51.690;5.202;2023-01-28T05:57:09;16.03;;;7.63;;
74995;SDS011;63545;51.690;5.202;2023-01-28T05:59:34;13.90;;;8.03;;
74995;SDS011;63545;51.690;5.202;2023-01-28T06:01:59;15.60;;;8.37;;
74995;SDS011;63545;51.690;5.202;2023-01-28T06:04:25;13.80;;;8.00;;
74995;SDS011;63545;51.690;5.202;2023-01-28T06:06:50;14.90;;;7.77;;
74995;SDS011;63545;51.690;5.202;2023-01-28T06:09:15;14.30;;;8.40;;
74995;SDS011;63545;51.690;5.202;2023-01-28T06:11:41;15.63;;;8.40;;
74995;SDS011;63545;51.690;5.202;2023-01-28T06:14:06;13.77;;;8.25;;
74995;SDS011;63545;51.690;5.202;2023-01-28T06:16:32;15.93;;;8.57;;
74995;SDS011;63545;51.690;5.202;2023-01-28T06:18:57;14.80;;;7.97;;
74995;SDS011;63545;51.690;5.202;2023-01-28T06:21:22;16.07;;;9.00;;
74995;SDS011;63545;51.690;5.202;2023-01-28T06:23:48;14.93;;;9.17;;
74995;SDS011;63545;51.690;5.202;2023-01-28T06:26:13;14.87;;;8.63;;
74995;SDS011;63545;51.690;5.202;2023-01-28T06:28:38;16.10;;;8.53;;
74995;SDS011;63545;51.690;5.202;2023-01-28T06:31:04;16.63;;;9.23;;
74995;SDS011;63545;51.690;5.202;2023-01-28T06:33:29;15.32;;;7.75;;
74995;SDS011;63545;51.690;5.202;2023-01-28T06:35:55;15.23;;;8.30;;
74995;SDS011;63545;51.690;5.202;2023-01-28T06:38:20;14.10;;;8.50;;
74995;SDS011;63545;51.690;5.202;2023-01-28T06:40:52;13.80;;;8.60;;
74995;SDS011;63545;51.690;5.202;2023-01-28T06:43:19;14.15;;;8.23;;
74995;SDS011;63545;51.690;5.202;2023-01-28T06:45:55;15.15;;;9.00;;
74995;SDS011;63545;51.690;5.202;2023-01-28T06:48:21;14.90;;;8.55;;
74995;SDS011;63545;51.690;5.202;2023-01-28T06:50:47;16.37;;;9.20;;
74995;SDS011;63545;51.690;5.202;2023-01-28T06:53:13;15.13;;;8.02;;
74995;SDS011;63545;51.690;5.202;2023-01-28T06:55:39;15.80;;;8.55;;
74995;SDS011;63545;51.690;5.202;2023-01-28T06:58:04;14.33;;;8.57;;
74995;SDS011;63545;51.690;5.202;2023-01-28T07:00:29;15.48;;;8.70;;
74995;SDS011;63545;51.690;5.202;2023-01-28T07:02:55;15.03;;;8.50;;
74995;SDS011;63545;51.690;5.202;2023-01-28T07:05:21;15.20;;;8.60;;
74995;SDS011;63545;51.690;5.202;2023-01-28T07:07:46;16.27;;;8.88;;
74995;SDS011;63545;51.690;5.202;2023-01-28T07:10:12;15.03;;;8.50;;
74995;SDS011;63545;51.690;5.202;2023-01-28T07:12:37;17.03;;;8.60;;
74995;SDS011;63545;51.690;5.202;2023-01-28T07:15:03;15.40;;;8.98;;
74995;SDS011;63545;51.690;5.202;2023-01-28T07:17:28;15.73;;;8.30;;
74995;SDS011;63545;51.690;5.202;2023-01-28T07:19:54;14.37;;;8.13;;
74995;SDS011;63545;51.690;5.202;2023-01-28T07:22:19;15.57;;;8.97;;
74995;SDS011;63545;51.690;5.202;2023-01-28T07:24:44;14.95;;;8.23;;
74995;SDS011;63545;51.690;5.202;2023-01-28T07:27:10;16.27;;;8.63;;
74995;SDS011;63545;51.690;5.202;2023-01-28T07:29:35;15.93;;;9.23;;
74995;SDS011;63545;51.690;5.202;2023-01-28T07:32:01;16.27;;;8.43;;
74995;SDS011;63545;51.690;5.202;2023-01-28T07:34:26;15.10;;;8.60;;
74995;SDS011;63545;51.690;5.202;2023-01-28T07:36:52;15.02;;;8.38;;
74995;SDS011;63545;51.690;5.202;2023-01-28T07:39:19;16.23;;;8.33;;
74995;SDS011;63545;51.690;5.202;2023-01-28T07:41:44;14.85;;;8.70;;
74995;SDS011;63545;51.690;5.202;2023-01-28T07:44:09;13.93;;;8.10;;
74995;SDS011;63545;51.690;5.202;2023-01-28T07:46:35;17.42;;;8.98;;
74995;SDS011;63545;51.690;5.202;2023-01-28T07:49:01;14.70;;;8.68;;
74995;SDS011;63545;51.690;5.202;2023-01-28T07:51:26;14.27;;;7.73;;
74995;SDS011;63545;51.690;5.202;2023-01-28T07:53:51;16.53;;;8.90;;
74995;SDS011;63545;51.690;5.202;2023-01-28T07:56:17;13.97;;;8.27;;
74995;SDS011;63545;51.690;5.202;2023-01-28T07:58:42;15.03;;;8.73;;
74995;SDS011;63545;51.690;5.202;2023-01-28T08:01:07;13.50;;;7.97;;
74995;SDS011;63545;51.690;5.202;2023-01-28T08:03:33;13.17;;;7.70;;
74995;SDS011;63545;51.690;5.202;2023-01-28T08:05:58;15.20;;;8.70;;
74995;SDS011;63545;51.690;5.202;2023-01-28T08:08:24;15.17;;;8.70;;
74995;SDS011;63545;51.690;5.202;2023-01-28T08:10:51;15.80;;;8.52;;
74995;SDS011;63545;51.690;5.202;2023-01-28T08:13:16;13.90;;;8.30;;
74995;SDS011;63545;51.690;5.202;2023-01-28T08:15:42;12.65;;;7.07;;
74995;SDS011;63545;51.690;5.202;2023-01-28T08:18:09;14.55;;;8.63;;
74995;SDS011;63545;51.690;5.202;2023-01-28T08:20:36;14.20;;;8.38;;
74995;SDS011;63545;51.690;5.202;2023-01-28T08:25:38;14.85;;;8.60;;
74995;SDS011;63545;51.690;5.202;2023-01-28T08:28:04;13.87;;;8.40;;
74995;SDS011;63545;51.690;5.202;2023-01-28T08:30:29;15.30;;;8.35;;
74995;SDS011;63545;51.690;5.202;2023-01-28T08:32:56;16.80;;;8.73;;
74995;SDS011;63545;51.690;5.202;2023-01-28T08:35:22;13.95;;;8.40;;
74995;SDS011;63545;51.690;5.202;2023-01-28T08:37:48;14.77;;;8.50;;
74995;SDS011;63545;51.690;5.202;2023-01-28T08:40:13;13.97;;;8.03;;
74995;SDS011;63545;51.690;5.202;2023-01-28T08:42:39;15.05;;;8.93;;
74995;SDS011;63545;51.690;5.202;2023-01-28T08:45:04;15.77;;;9.43;;
74995;SDS011;63545;51.690;5.202;2023-01-28T08:47:30;16.35;;;8.82;;
74995;SDS011;63545;51.690;5.202;2023-01-28T08:49:56;15.05;;;8.07;;
74995;SDS011;63545;51.690;5.202;2023-01-28T08:52:21;15.07;;;7.70;;
74995;SDS011;63545;51.690;5.202;2023-01-28T08:54:46;12.57;;;7.63;;
74995;SDS011;63545;51.690;5.202;2023-01-28T08:57:12;15.50;;;8.07;;
74995;SDS011;63545;51.690;5.202;2023-01-28T08:59:37;14.60;;;8.17;;
74995;SDS011;63545;51.690;5.202;2023-01-28T09:02:09;13.57;;;8.30;;
74995;SDS011;63545;51.690;5.202;2023-01-28T09:04:37;14.95;;;7.85;;
74995;SDS011;63545;51.690;5.202;2023-01-28T09:07:02;13.93;;;7.73;;
74995;SDS011;63545;51.690;5.202;2023-01-28T09:09:29;12.33;;;7.47;;
74995;SDS011;63545;51.690;5.202;2023-01-28T09:11:54;13.45;;;7.32;;
74995;SDS011;63545;51.690;5.202;2023-01-28T09:14:20;13.83;;;7.90;;
74995;SDS011;63545;51.690;5.202;2023-01-28T09:16:45;13.80;;;7.87;;
74995;SDS011;63545;51.690;5.202;2023-01-28T09:19:10;15.13;;;7.77;;
74995;SDS011;63545;51.690;5.202;2023-01-28T09:21:37;13.13;;;7.20;;
74995;SDS011;63545;51.690;5.202;2023-01-28T09:24:03;15.18;;;8.13;;
74995;SDS011;63545;51.690;5.202;2023-01-28T09:26:29;14.40;;;7.83;;
74995;SDS011;63545;51.690;5.202;2023-01-28T09:28:54;15.15;;;8.75;;
74995;SDS011;63545;51.690;5.202;2023-01-28T09:31:20;14.43;;;8.53;;
74995;SDS011;63545;51.690;5.202;2023-01-28T09:33:45;14.57;;;8.13;;
74995;SDS011;63545;51.690;5.202;2023-01-28T09:36:11;16.15;;;8.48;;
74995;SDS011;63545;51.690;5.202;2023-01-28T09:38:36;15.73;;;8.93;;
74995;SDS011;63545;51.690;5.202;2023-01-28T09:41:03;14.60;;;8.53;;
74995;SDS011;63545;51.690;5.202;2023-01-28T09:46:37;14.70;;;8.35;;
74995;SDS011;63545;51.690;5.202;2023-01-28T09:49:17;15.23;;;8.40;;
74995;SDS011;63545;51.690;5.202;2023-01-28T09:51:49;13.73;;;8.23;;
74995;SDS011;63545;51.690;5.202;2023-01-28T09:56:57;14.93;;;7.80;;
74995;SDS011;63545;51.690;5.202;2023-01-28T09:59:29;13.07;;;8.35;;
74995;SDS011;63545;51.690;5.202;2023-01-28T10:04:44;13.27;;;7.60;;
74995;SDS011;63545;51.690;5.202;2023-01-28T10:07:33;14.52;;;8.07;;
74995;SDS011;63545;51.690;5.202;2023-01-28T10:10:28;13.53;;;8.03;;
74995;SDS011;63545;51.690;5.202;2023-01-28T10:19:06;17.88;;;9.40;;
74995;SDS011;63545;51.690;5.202;2023-01-28T10:21:40;14.75;;;7.93;;
74995;SDS011;63545;51.690;5.202;2023-01-28T10:24:16;15.25;;;8.35;;
74995;SDS011;63545;51.690;5.202;2023-01-28T10:26:44;17.10;;;8.50;;
74995;SDS011;63545;51.690;5.202;2023-01-28T10:29:16;14.68;;;8.05;;
74995;SDS011;63545;51.690;5.202;2023-01-28T10:31:49;14.95;;;8.13;;
74995;SDS011;63545;51.690;5.202;2023-01-28T10:34:20;15.15;;;8.52;;
74995;SDS011;63545;51.690;5.202;2023-01-28T10:36:47;16.10;;;8.68;;
74995;SDS011;63545;51.690;5.202;2023-01-28T10:39:16;15.27;;;8.57;;
74995;SDS011;63545;51.690;5.202;2023-01-28T10:41:43;13.77;;;8.03;;
74995;SDS011;63545;51.690;5.202;2023-01-28T10:44:11;15.75;;;8.25;;
74995;SDS011;63545;51.690;5.202;2023-01-28T10:46:39;14.67;;;8.70;;
74995;SDS011;63545;51.690;5.202;2023-01-28T10:51:35;14.50;;;8.18;;
74995;SDS011;63545;51.690;5.202;2023-01-28T10:54:03;16.05;;;8.60;;
74995;SDS011;63545;51.690;5.202;2023-01-28T10:56:30;12.35;;;7.55;;
74995;SDS011;63545;51.690;5.202;2023-01-28T10:59:03;12.07;;;7.10;;
74995;SDS011;63545;51.690;5.202;2023-01-28T11:01:39;11.57;;;7.15;;
74995;SDS011;63545;51.690;5.202;2023-01-28T11:04:14;12.32;;;6.70;;
74995;SDS011;63545;51.690;5.202;2023-01-28T11:06:42;13.13;;;6.60;;
74995;SDS011;63545;51.690;5.202;2023-01-28T11:09:20;9.73;;;6.05;;
74995;SDS011;63545;51.690;5.202;2023-01-28T11:11:54;11.00;;;5.77;;
74995;SDS011;63545;51.690;5.202;2023-01-28T11:14:20;9.38;;;5.60;;
74995;SDS011;63545;51.690;5.202;2023-01-28T11:16:47;8.73;;;5.60;;
74995;SDS011;63545;51.690;5.202;2023-01-28T11:19:14;8.88;;;5.00;;
74995;SDS011;63545;51.690;5.202;2023-01-28T11:21:39;8.77;;;5.40;;
74995;SDS011;63545;51.690;5.202;2023-01-28T11:24:15;8.88;;;5.32;;
74995;SDS011;63545;51.690;5.202;2023-01-28T11:26:46;7.75;;;4.97;;
74995;SDS011;63545;51.690;5.202;2023-01-28T11:29:19;8.90;;;4.87;;
74995;SDS011;63545;51.690;5.202;2023-01-28T11:31:48;9.60;;;4.90;;
74995;SDS011;63545;51.690;5.202;2023-01-28T11:34:17;8.38;;;4.88;;
74995;SDS011;63545;51.690;5.202;2023-01-28T11:36:50;9.13;;;4.90;;
74995;SDS011;63545;51.690;5.202;2023-01-28T11:39:24;7.78;;;4.90;;
74995;SDS011;63545;51.690;5.202;2023-01-28T11:41:53;8.10;;;5.10;;
74995;SDS011;63545;51.690;5.202;2023-01-28T11:44:23;8.55;;;4.97;;
74995;SDS011;63545;51.690;5.202;2023-01-28T12:12:06;7.18;;;4.45;;
74995;SDS011;63545;51.690;5.202;2023-01-28T12:14:26;8.25;;;4.78;;
74995;SDS011;63545;51.690;5.202;2023-01-28T12:19:57;6.95;;;4.88;;
74995;SDS011;63545;51.690;5.202;2023-01-28T12:22:33;6.77;;;4.40;;
74995;SDS011;63545;51.690;5.202;2023-01-28T12:27:42;6.82;;;4.25;;
74995;SDS011;63545;51.690;5.202;2023-01-28T12:41:03;8.70;;;4.85;;
74995;SDS011;63545;51.690;5.202;2023-01-28T12:43:59;6.95;;;4.40;;
74995;SDS011;63545;51.690;5.202;2023-01-28T12:56:53;8.18;;;4.60;;
74995;SDS011;63545;51.690;5.202;2023-01-28T13:07:33;10.38;;;5.22;;
74995;SDS011;63545;51.690;5.202;2023-01-28T13:12:51;8.63;;;4.90;;
74995;SDS011;63545;51.690;5.202;2023-01-28T13:15:17;7.73;;;4.70;;
74995;SDS011;63545;51.690;5.202;2023-01-28T13:20:44;7.97;;;5.03;;
74995;SDS011;63545;51.690;5.202;2023-01-28T13:23:21;7.25;;;4.63;;
74995;SDS011;63545;51.690;5.202;2023-01-28T13:28:50;8.37;;;4.50;;
74995;SDS011;63545;51.690;5.202;2023-01-28T13:31:17;7.07;;;4.40;;
74995;SDS011;63545;51.690;5.202;2023-01-28T13:36:18;9.55;;;4.95;;
74995;SDS011;63545;51.690;5.202;2023-01-28T13:38:58;7.70;;;5.18;;
74995;SDS011;63545;51.690;5.202;2023-01-28T13:41:35;8.33;;;4.87;;
74995;SDS011;63545;51.690;5.202;2023-01-28T13:46:59;115.15;;;8.20;;
74995;SDS011;63545;51.690;5.202;2023-01-28T13:54:37;10.90;;;4.87;;
74995;SDS011;63545;51.690;5.202;2023-01-28T14:00:07;8.00;;;5.47;;
74995;SDS011;63545;51.690;5.202;2023-01-28T14:02:50;7.30;;;5.07;;
74995;SDS011;63545;51.690;5.202;2023-01-28T14:14:43;10.70;;;5.20;;
74995;SDS011;63545;51.690;5.202;2023-01-28T14:19:51;7.65;;;5.40;;
74995;SDS011;63545;51.690;5.202;2023-01-28T14:22:18;6.87;;;4.77;;
74995;SDS011;63545;51.690;5.202;2023-01-28T14:24:46;8.50;;;5.53;;
74995;SDS011;63545;51.690;5.202;2023-01-28T14:32:55;8.18;;;4.90;;
74995;SDS011;63545;51.690;5.202;2023-01-28T14:35:28;8.23;;;5.20;;
74995;SDS011;63545;51.690;5.202;2023-01-28T14:37:55;8.60;;;5.05;;
74995;SDS011;63545;51.690;5.202;2023-01-28T14:40:22;8.00;;;5.00;;
74995;SDS011;63545;51.690;5.202;2023-01-28T14:42:49;7.78;;;5.40;;
74995;SDS011;63545;51.690;5.202;2023-01-28T14:45:28;7.45;;;5.13;;
74995;SDS011;63545;51.690;5.202;2023-01-28T14:59:19;9.98;;;5.93;;
74995;SDS011;63545;51.690;5.202;2023-01-28T15:01:47;7.55;;;5.30;;
74995;SDS011;63545;51.690;5.202;2023-01-28T15:04:46;8.25;;;5.35;;
74995;SDS011;63545;51.690;5.202;2023-01-28T15:07:15;10.27;;;5.50;;
74995;SDS011;63545;51.690;5.202;2023-01-28T15:09:42;8.88;;;5.40;;
74995;SDS011;63545;51.690;5.202;2023-01-28T15:12:07;7.88;;;5.30;;
74995;SDS011;63545;51.690;5.202;2023-01-28T15:14:33;9.97;;;5.50;;
74995;SDS011;63545;51.690;5.202;2023-01-28T15:16:58;7.37;;;5.47;;
74995;SDS011;63545;51.690;5.202;2023-01-28T15:19:29;10.75;;;5.47;;
74995;SDS011;63545;51.690;5.202;2023-01-28T15:22:00;8.25;;;5.57;;
74995;SDS011;63545;51.690;5.202;2023-01-28T15:24:27;9.02;;;5.63;;
74995;SDS011;63545;51.690;5.202;2023-01-28T15:26:52;12.07;;;5.43;;
74995;SDS011;63545;51.690;5.202;2023-01-28T15:29:25;10.00;;;5.30;;
74995;SDS011;63545;51.690;5.202;2023-01-28T15:31:57;8.10;;;5.15;;
74995;SDS011;63545;51.690;5.202;2023-01-28T15:34:23;8.30;;;5.35;;
74995;SDS011;63545;51.690;5.202;2023-01-28T15:36:54;9.60;;;5.87;;
74995;SDS011;63545;51.690;5.202;2023-01-28T15:39:21;8.25;;;5.07;;
74995;SDS011;63545;51.690;5.202;2023-01-28T15:41:54;9.70;;;5.10;;
74995;SDS011;63545;51.690;5.202;2023-01-28T15:44:23;10.88;;;5.50;;
74995;SDS011;63545;51.690;5.202;2023-01-28T15:46:53;9.65;;;5.18;;
74995;SDS011;63545;51.690;5.202;2023-01-28T15:49:20;10.03;;;5.43;;
74995;SDS011;63545;51.690;5.202;2023-01-28T15:51:52;11.25;;;5.57;;
74995;SDS011;63545;51.690;5.202;2023-01-28T15:54:17;8.03;;;4.93;;
74995;SDS011;63545;51.690;5.202;2023-01-28T15:56:43;9.68;;;5.78;;
74995;SDS011;63545;51.690;5.202;2023-01-28T16:01:40;10.90;;;6.55;;
74995;SDS011;63545;51.690;5.202;2023-01-28T16:04:18;10.23;;;5.88;;
74995;SDS011;63545;51.690;5.202;2023-01-28T16:06:46;9.18;;;5.65;;
74995;SDS011;63545;51.690;5.202;2023-01-28T16:09:21;10.27;;;5.10;;
74995;SDS011;63545;51.690;5.202;2023-01-28T16:11:48;9.70;;;6.03;;
74995;SDS011;63545;51.690;5.202;2023-01-28T16:14:19;8.47;;;5.87;;
74995;SDS011;63545;51.690;5.202;2023-01-28T16:16:54;9.68;;;5.82;;
74995;SDS011;63545;51.690;5.202;2023-01-28T16:22:05;9.00;;;5.63;;
74995;SDS011;63545;51.690;5.202;2023-01-28T16:24:32;10.82;;;6.20;;
74995;SDS011;63545;51.690;5.202;2023-01-28T16:27:21;11.07;;;6.03;;
74995;SDS011;63545;51.690;5.202;2023-01-28T16:29:48;10.52;;;6.10;;
74995;SDS011;63545;51.690;5.202;2023-01-28T16:34:56;11.10;;;5.97;;
74995;SDS011;63545;51.690;5.202;2023-01-28T16:37:22;10.53;;;5.77;;
74995;SDS011;63545;51.690;5.202;2023-01-28T16:39:48;11.43;;;5.80;;
74995;SDS011;63545;51.690;5.202;2023-01-28T16:42:14;9.23;;;5.38;;
74995;SDS011;63545;51.690;5.202;2023-01-28T16:44:39;10.13;;;5.57;;
74995;SDS011;63545;51.690;5.202;2023-01-28T16:47:04;9.00;;;5.70;;
74995;SDS011;63545;51.690;5.202;2023-01-28T16:49:30;9.52;;;5.88;;
74995;SDS011;63545;51.690;5.202;2023-01-28T16:51:56;11.10;;;5.93;;
74995;SDS011;63545;51.690;5.202;2023-01-28T16:54:21;9.33;;;5.80;;
74995;SDS011;63545;51.690;5.202;2023-01-28T16:56:46;9.93;;;5.93;;
74995;SDS011;63545;51.690;5.202;2023-01-28T16:59:13;10.93;;;5.63;;
74995;SDS011;63545;51.690;5.202;2023-01-28T17:01:39;9.60;;;5.60;;
74995;SDS011;63545;51.690;5.202;2023-01-28T17:04:05;10.97;;;6.10;;
74995;SDS011;63545;51.690;5.202;2023-01-28T17:06:33;14.68;;;8.48;;
74995;SDS011;63545;51.690;5.202;2023-01-28T17:09:00;11.43;;;7.18;;
74995;SDS011;63545;51.690;5.202;2023-01-28T17:11:27;11.00;;;6.57;;
74995;SDS011;63545;51.690;5.202;2023-01-28T17:13:53;37.63;;;24.20;;
74995;SDS011;63545;51.690;5.202;2023-01-28T17:16:18;20.90;;;14.10;;
74995;SDS011;63545;51.690;5.202;2023-01-28T17:18:43;16.40;;;10.97;;
74995;SDS011;63545;51.690;5.202;2023-01-28T17:21:09;14.33;;;7.37;;
74995;SDS011;63545;51.690;5.202;2023-01-28T17:23:35;12.07;;;8.23;;
74995;SDS011;63545;51.690;5.202;2023-01-28T17:26:04;12.30;;;8.47;;
74995;SDS011;63545;51.690;5.202;2023-01-28T17:28:30;12.63;;;7.78;;